sensor_id;sensor_type;location;lat;lon;timestamp;P1;durP1;ratioP1;P2;durP2;ratioP2
579;SDS011;276;48.392;9.950;2023-09-19T00:00:42;1.30;;;1.20;;
579;SDS011;276;48.392;9.950;2023-09-19T00:03:09;1.27;;;1.00;;
579;SDS011;276;48.392;9.950;2023-09-19T00:05:35;2.13;;;1.43;;
579;SDS011;276;48.392;9.950;2023-09-19T00:08:03;1.20;;;0.90;;
579;SDS011;276;48.392;9.950;2023-09-19T00:10:29;1.70;;;1.30;;
579;SDS011;276;48.392;9.950;2023-09-19T00:13:02;1.37;;;1.27;;
579;SDS011;276;48.392;9.950;2023-09-19T00:15:36;1.80;;;1.30;;
579;SDS011;276;48.392;9.950;2023-09-19T00:18:05;1.73;;;1.27;;
579;SDS011;276;48.392;9.950;2023-09-19T00:20:32;3.00;;;1.57;;
579;SDS011;276;48.392;9.950;2023-09-19T00:23:00;1.83;;;1.30;;
579;SDS011;276;48.392;9.950;2023-09-19T00:25:33;2.27;;;1.30;;
579;SDS011;276;48.392;9.950;2023-09-19T00:28:02;1.20;;;1.10;;
579;SDS011;276;48.392;9.950;2023-09-19T00:30:36;1.90;;;1.20;;
579;SDS011;276;48.392;9.950;2023-09-19T00:33:03;1.43;;;1.17;;
579;SDS011;276;48.392;9.950;2023-09-19T00:35:31;1.10;;;0.93;;
579;SDS011;276;48.392;9.950;2023-09-19T00:37:58;0.73;;;0.70;;
579;SDS011;276;48.392;9.950;2023-09-19T00:40:25;1.43;;;1.20;;
579;SDS011;276;48.392;9.950;2023-09-19T00:42:57;1.20;;;0.80;;
579;SDS011;276;48.392;9.950;2023-09-19T00:45:26;2.17;;;1.30;;
579;SDS011;276;48.392;9.950;2023-09-19T00:47:53;2.43;;;0.90;;
579;SDS011;276;48.392;9.950;2023-09-19T00:50:19;1.23;;;1.13;;
579;SDS011;276;48.392;9.950;2023-09-19T00:52:48;1.07;;;0.97;;
579;SDS011;276;48.392;9.950;2023-09-19T00:55:15;1.40;;;1.30;;
579;SDS011;276;48.392;9.950;2023-09-19T00:57:44;2.43;;;1.20;;
579;SDS011;276;48.392;9.950;2023-09-19T01:00:12;2.27;;;1.27;;
579;SDS011;276;48.392;9.950;2023-09-19T01:02:40;1.30;;;1.13;;
579;SDS011;276;48.392;9.950;2023-09-19T01:05:08;2.47;;;1.40;;
579;SDS011;276;48.392;9.950;2023-09-19T01:07:34;2.30;;;1.80;;
579;SDS011;276;48.392;9.950;2023-09-19T01:10:05;3.73;;;2.50;;
579;SDS011;276;48.392;9.950;2023-09-19T01:12:44;1.77;;;1.67;;
579;SDS011;276;48.392;9.950;2023-09-19T01:17:45;3.00;;;1.70;;
579;SDS011;276;48.392;9.950;2023-09-19T01:29:17;2.53;;;2.23;;
579;SDS011;276;48.392;9.950;2023-09-19T01:31:54;2.80;;;2.17;;
579;SDS011;276;48.392;9.950;2023-09-19T01:34:26;4.37;;;1.90;;
579;SDS011;276;48.392;9.950;2023-09-19T01:36:52;2.03;;;1.80;;
579;SDS011;276;48.392;9.950;2023-09-19T01:39:22;2.87;;;2.50;;
579;SDS011;276;48.392;9.950;2023-09-19T01:41:51;2.33;;;1.80;;
579;SDS011;276;48.392;9.950;2023-09-19T01:55:58;4.00;;;2.60;;
579;SDS011;276;48.392;9.950;2023-09-19T02:00:55;3.17;;;2.87;;
579;SDS011;276;48.392;9.950;2023-09-19T02:03:25;3.00;;;2.50;;
579;SDS011;276;48.392;9.950;2023-09-19T02:05:55;2.90;;;2.60;;
579;SDS011;276;48.392;9.950;2023-09-19T02:08:23;4.07;;;3.10;;
579;SDS011;276;48.392;9.950;2023-09-19T02:10:53;2.47;;;2.27;;
579;SDS011;276;48.392;9.950;2023-09-19T02:13:19;2.77;;;2.57;;
579;SDS011;276;48.392;9.950;2023-09-19T02:15:48;3.20;;;2.90;;
579;SDS011;276;48.392;9.950;2023-09-19T02:18:13;2.87;;;2.10;;
579;SDS011;276;48.392;9.950;2023-09-19T02:20:43;3.50;;;3.20;;
579;SDS011;276;48.392;9.950;2023-09-19T02:23:09;5.40;;;2.93;;
579;SDS011;276;48.392;9.950;2023-09-19T02:25:35;3.63;;;3.33;;
579;SDS011;276;48.392;9.950;2023-09-19T02:28:01;2.97;;;2.77;;
579;SDS011;276;48.392;9.950;2023-09-19T02:30:30;6.03;;;3.13;;
579;SDS011;276;48.392;9.950;2023-09-19T02:33:01;4.80;;;3.63;;
579;SDS011;276;48.392;9.950;2023-09-19T02:35:27;3.50;;;2.53;;
579;SDS011;276;48.392;9.950;2023-09-19T02:37:53;3.30;;;3.00;;
579;SDS011;276;48.392;9.950;2023-09-19T02:40:23;4.33;;;3.67;;
579;SDS011;276;48.392;9.950;2023-09-19T02:42:53;5.00;;;3.00;;
579;SDS011;276;48.392;9.950;2023-09-19T02:45:19;8.13;;;4.07;;
579;SDS011;276;48.392;9.950;2023-09-19T02:47:45;3.60;;;3.30;;
579;SDS011;276;48.392;9.950;2023-09-19T02:50:12;6.97;;;3.30;;
579;SDS011;276;48.392;9.950;2023-09-19T02:52:41;3.90;;;3.50;;
579;SDS011;276;48.392;9.950;2023-09-19T02:55:13;4.30;;;3.37;;
579;SDS011;276;48.392;9.950;2023-09-19T02:57:45;4.80;;;3.73;;
579;SDS011;276;48.392;9.950;2023-09-19T03:00:12;5.00;;;3.83;;
579;SDS011;276;48.392;9.950;2023-09-19T03:02:38;5.33;;;4.00;;
579;SDS011;276;48.392;9.950;2023-09-19T03:05:06;5.00;;;3.20;;
579;SDS011;276;48.392;9.950;2023-09-19T03:07:32;6.20;;;3.80;;
579;SDS011;276;48.392;9.950;2023-09-19T03:09:58;4.70;;;3.30;;
579;SDS011;276;48.392;9.950;2023-09-19T03:12:25;5.60;;;4.60;;
579;SDS011;276;48.392;9.950;2023-09-19T03:14:55;7.30;;;4.30;;
579;SDS011;276;48.392;9.950;2023-09-19T03:17:24;4.80;;;3.97;;
579;SDS011;276;48.392;9.950;2023-09-19T03:19:52;4.50;;;3.57;;
579;SDS011;276;48.392;9.950;2023-09-19T03:22:18;4.87;;;4.37;;
579;SDS011;276;48.392;9.950;2023-09-19T03:24:44;4.10;;;3.27;;
579;SDS011;276;48.392;9.950;2023-09-19T03:27:11;4.77;;;3.87;;
579;SDS011;276;48.392;9.950;2023-09-19T03:29:41;4.90;;;3.17;;
579;SDS011;276;48.392;9.950;2023-09-19T03:32:09;4.67;;;3.93;;
579;SDS011;276;48.392;9.950;2023-09-19T03:34:40;4.10;;;3.27;;
579;SDS011;276;48.392;9.950;2023-09-19T03:37:07;3.80;;;3.43;;
579;SDS011;276;48.392;9.950;2023-09-19T03:39:34;4.50;;;3.80;;
579;SDS011;276;48.392;9.950;2023-09-19T03:42:00;4.17;;;3.77;;
579;SDS011;276;48.392;9.950;2023-09-19T03:44:26;6.23;;;3.00;;
579;SDS011;276;48.392;9.950;2023-09-19T03:46:52;6.00;;;3.30;;
579;SDS011;276;48.392;9.950;2023-09-19T03:49:17;4.57;;;4.17;;
579;SDS011;276;48.392;9.950;2023-09-19T03:51:44;4.40;;;3.70;;
579;SDS011;276;48.392;9.950;2023-09-19T03:54:09;4.53;;;2.97;;
579;SDS011;276;48.392;9.950;2023-09-19T03:56:37;3.80;;;3.40;;
579;SDS011;276;48.392;9.950;2023-09-19T03:59:03;3.70;;;3.13;;
579;SDS011;276;48.392;9.950;2023-09-19T04:01:29;4.10;;;3.30;;
579;SDS011;276;48.392;9.950;2023-09-19T04:03:57;5.17;;;4.07;;
579;SDS011;276;48.392;9.950;2023-09-19T04:06:24;4.23;;;3.83;;
579;SDS011;276;48.392;9.950;2023-09-19T04:08:49;5.87;;;3.20;;
579;SDS011;276;48.392;9.950;2023-09-19T04:11:17;3.67;;;3.10;;
579;SDS011;276;48.392;9.950;2023-09-19T04:13:43;7.43;;;2.83;;
579;SDS011;276;48.392;9.950;2023-09-19T04:16:08;6.43;;;3.77;;
579;SDS011;276;48.392;9.950;2023-09-19T04:18:35;5.30;;;3.03;;
579;SDS011;276;48.392;9.950;2023-09-19T04:21:03;4.47;;;3.20;;
579;SDS011;276;48.392;9.950;2023-09-19T04:23:32;3.90;;;2.60;;
579;SDS011;276;48.392;9.950;2023-09-19T04:25:58;3.87;;;3.53;;
579;SDS011;276;48.392;9.950;2023-09-19T04:28:23;3.57;;;3.10;;
579;SDS011;276;48.392;9.950;2023-09-19T04:30:49;5.87;;;2.70;;
579;SDS011;276;48.392;9.950;2023-09-19T04:33:15;9.60;;;3.40;;
579;SDS011;276;48.392;9.950;2023-09-19T04:35:41;5.73;;;2.50;;
579;SDS011;276;48.392;9.950;2023-09-19T04:38:07;3.10;;;2.77;;
579;SDS011;276;48.392;9.950;2023-09-19T04:40:33;5.80;;;3.50;;
579;SDS011;276;48.392;9.950;2023-09-19T04:42:59;3.73;;;2.83;;
579;SDS011;276;48.392;9.950;2023-09-19T04:45:26;2.70;;;2.50;;
579;SDS011;276;48.392;9.950;2023-09-19T04:47:53;3.53;;;2.80;;
579;SDS011;276;48.392;9.950;2023-09-19T04:50:19;2.30;;;2.10;;
579;SDS011;276;48.392;9.950;2023-09-19T04:52:51;3.33;;;2.37;;
579;SDS011;276;48.392;9.950;2023-09-19T04:55:19;3.07;;;2.77;;
579;SDS011;276;48.392;9.950;2023-09-19T04:57:48;3.13;;;2.93;;
579;SDS011;276;48.392;9.950;2023-09-19T05:00:15;3.40;;;2.93;;
579;SDS011;276;48.392;9.950;2023-09-19T05:02:44;2.80;;;2.47;;
579;SDS011;276;48.392;9.950;2023-09-19T05:05:11;3.23;;;2.93;;
579;SDS011;276;48.392;9.950;2023-09-19T05:07:39;3.47;;;2.50;;
579;SDS011;276;48.392;9.950;2023-09-19T05:10:06;2.67;;;2.27;;
579;SDS011;276;48.392;9.950;2023-09-19T05:12:33;4.13;;;2.80;;
579;SDS011;276;48.392;9.950;2023-09-19T05:15:04;3.63;;;2.60;;
579;SDS011;276;48.392;9.950;2023-09-19T05:17:32;2.60;;;2.40;;
579;SDS011;276;48.392;9.950;2023-09-19T05:20:01;3.20;;;2.60;;
579;SDS011;276;48.392;9.950;2023-09-19T05:22:40;3.70;;;2.87;;
579;SDS011;276;48.392;9.950;2023-09-19T05:25:08;2.50;;;2.30;;
579;SDS011;276;48.392;9.950;2023-09-19T05:27:36;2.50;;;2.17;;
579;SDS011;276;48.392;9.950;2023-09-19T05:30:05;3.00;;;2.20;;
579;SDS011;276;48.392;9.950;2023-09-19T05:32:31;4.23;;;2.67;;
579;SDS011;276;48.392;9.950;2023-09-19T05:34:57;3.20;;;2.50;;
579;SDS011;276;48.392;9.950;2023-09-19T05:37:25;3.80;;;2.70;;
579;SDS011;276;48.392;9.950;2023-09-19T05:39:51;4.53;;;2.90;;
579;SDS011;276;48.392;9.950;2023-09-19T05:42:18;4.27;;;3.13;;
579;SDS011;276;48.392;9.950;2023-09-19T05:44:46;2.27;;;2.07;;
579;SDS011;276;48.392;9.950;2023-09-19T05:47:12;2.57;;;2.33;;
579;SDS011;276;48.392;9.950;2023-09-19T05:49:38;2.73;;;2.17;;
579;SDS011;276;48.392;9.950;2023-09-19T05:52:05;2.93;;;2.23;;
579;SDS011;276;48.392;9.950;2023-09-19T05:54:31;2.70;;;2.23;;
579;SDS011;276;48.392;9.950;2023-09-19T05:57:01;2.67;;;2.43;;
579;SDS011;276;48.392;9.950;2023-09-19T05:59:27;3.70;;;2.63;;
579;SDS011;276;48.392;9.950;2023-09-19T06:01:53;4.80;;;2.30;;
579;SDS011;276;48.392;9.950;2023-09-19T06:04:18;2.87;;;2.57;;
579;SDS011;276;48.392;9.950;2023-09-19T06:06:44;3.33;;;2.40;;
579;SDS011;276;48.392;9.950;2023-09-19T06:09:13;2.57;;;2.10;;
579;SDS011;276;48.392;9.950;2023-09-19T06:11:42;3.77;;;2.40;;
579;SDS011;276;48.392;9.950;2023-09-19T06:14:10;3.27;;;2.53;;
579;SDS011;276;48.392;9.950;2023-09-19T06:16:36;2.30;;;1.83;;
579;SDS011;276;48.392;9.950;2023-09-19T06:19:03;1.70;;;1.60;;
579;SDS011;276;48.392;9.950;2023-09-19T06:21:31;3.57;;;2.07;;
579;SDS011;276;48.392;9.950;2023-09-19T06:23:57;3.20;;;1.87;;
579;SDS011;276;48.392;9.950;2023-09-19T06:26:27;1.90;;;1.73;;
579;SDS011;276;48.392;9.950;2023-09-19T06:28:54;5.80;;;2.13;;
579;SDS011;276;48.392;9.950;2023-09-19T06:31:20;2.70;;;2.13;;
579;SDS011;276;48.392;9.950;2023-09-19T06:33:48;2.73;;;2.20;;
579;SDS011;276;48.392;9.950;2023-09-19T06:36:13;3.63;;;2.60;;
579;SDS011;276;48.392;9.950;2023-09-19T06:38:40;2.47;;;1.87;;
579;SDS011;276;48.392;9.950;2023-09-19T06:41:08;1.83;;;1.67;;
579;SDS011;276;48.392;9.950;2023-09-19T06:43:34;5.20;;;2.40;;
579;SDS011;276;48.392;9.950;2023-09-19T06:46:00;3.97;;;1.57;;
579;SDS011;276;48.392;9.950;2023-09-19T06:48:27;1.87;;;1.77;;
579;SDS011;276;48.392;9.950;2023-09-19T06:50:57;2.53;;;2.10;;
579;SDS011;276;48.392;9.950;2023-09-19T06:53:29;1.57;;;1.47;;
579;SDS011;276;48.392;9.950;2023-09-19T06:56:00;1.50;;;1.10;;
579;SDS011;276;48.392;9.950;2023-09-19T06:58:26;1.90;;;1.43;;
579;SDS011;276;48.392;9.950;2023-09-19T07:00:52;1.70;;;1.50;;
579;SDS011;276;48.392;9.950;2023-09-19T07:03:18;1.80;;;1.70;;
579;SDS011;276;48.392;9.950;2023-09-19T07:05:46;3.23;;;1.73;;
579;SDS011;276;48.392;9.950;2023-09-19T07:08:13;2.50;;;1.70;;
579;SDS011;276;48.392;9.950;2023-09-19T07:10:40;2.20;;;1.20;;
579;SDS011;276;48.392;9.950;2023-09-19T07:13:10;2.10;;;1.90;;
579;SDS011;276;48.392;9.950;2023-09-19T07:15:36;3.00;;;2.17;;
579;SDS011;276;48.392;9.950;2023-09-19T07:18:06;2.50;;;1.63;;
579;SDS011;276;48.392;9.950;2023-09-19T07:20:34;2.30;;;1.70;;
579;SDS011;276;48.392;9.950;2023-09-19T07:23:00;2.10;;;1.70;;
579;SDS011;276;48.392;9.950;2023-09-19T07:25:26;3.87;;;2.77;;
579;SDS011;276;48.392;9.950;2023-09-19T07:27:54;2.07;;;1.87;;
579;SDS011;276;48.392;9.950;2023-09-19T07:30:20;2.17;;;1.60;;
579;SDS011;276;48.392;9.950;2023-09-19T07:32:48;2.43;;;2.07;;
579;SDS011;276;48.392;9.950;2023-09-19T07:35:17;1.90;;;1.70;;
579;SDS011;276;48.392;9.950;2023-09-19T07:37:48;2.10;;;1.80;;
579;SDS011;276;48.392;9.950;2023-09-19T07:40:15;4.63;;;2.23;;
579;SDS011;276;48.392;9.950;2023-09-19T07:42:41;2.03;;;1.50;;
579;SDS011;276;48.392;9.950;2023-09-19T07:45:11;2.17;;;1.80;;
579;SDS011;276;48.392;9.950;2023-09-19T07:47:48;3.30;;;2.07;;
579;SDS011;276;48.392;9.950;2023-09-19T07:50:14;2.07;;;1.40;;
579;SDS011;276;48.392;9.950;2023-09-19T07:52:41;3.60;;;1.80;;
579;SDS011;276;48.392;9.950;2023-09-19T07:55:10;2.43;;;2.10;;
579;SDS011;276;48.392;9.950;2023-09-19T07:57:41;1.77;;;1.53;;
579;SDS011;276;48.392;9.950;2023-09-19T08:00:08;2.40;;;1.60;;
579;SDS011;276;48.392;9.950;2023-09-19T08:02:38;2.00;;;1.57;;
579;SDS011;276;48.392;9.950;2023-09-19T08:05:11;2.20;;;1.33;;
579;SDS011;276;48.392;9.950;2023-09-19T08:07:41;2.67;;;1.70;;
579;SDS011;276;48.392;9.950;2023-09-19T08:10:09;1.20;;;1.00;;
579;SDS011;276;48.392;9.950;2023-09-19T08:12:41;1.43;;;1.17;;
579;SDS011;276;48.392;9.950;2023-09-19T08:15:14;1.37;;;1.17;;
579;SDS011;276;48.392;9.950;2023-09-19T08:17:41;1.10;;;1.07;;
579;SDS011;276;48.392;9.950;2023-09-19T08:20:07;1.40;;;1.27;;
579;SDS011;276;48.392;9.950;2023-09-19T08:22:41;0.87;;;0.87;;
579;SDS011;276;48.392;9.950;2023-09-19T08:25:14;1.27;;;1.10;;
579;SDS011;276;48.392;9.950;2023-09-19T08:27:43;1.33;;;1.23;;
579;SDS011;276;48.392;9.950;2023-09-19T08:30:14;1.80;;;1.23;;
579;SDS011;276;48.392;9.950;2023-09-19T08:32:40;1.70;;;1.13;;
579;SDS011;276;48.392;9.950;2023-09-19T08:35:07;1.67;;;1.30;;
579;SDS011;276;48.392;9.950;2023-09-19T08:37:36;3.27;;;1.20;;
579;SDS011;276;48.392;9.950;2023-09-19T08:40:01;1.10;;;1.00;;
579;SDS011;276;48.392;9.950;2023-09-19T08:42:27;1.13;;;1.00;;
579;SDS011;276;48.392;9.950;2023-09-19T08:44:53;2.07;;;1.77;;
579;SDS011;276;48.392;9.950;2023-09-19T08:47:26;1.57;;;1.30;;
579;SDS011;276;48.392;9.950;2023-09-19T08:50:19;1.30;;;1.20;;
579;SDS011;276;48.392;9.950;2023-09-19T08:52:53;2.23;;;1.10;;
579;SDS011;276;48.392;9.950;2023-09-19T08:55:23;1.30;;;1.20;;
579;SDS011;276;48.392;9.950;2023-09-19T08:58:01;0.97;;;0.83;;
579;SDS011;276;48.392;9.950;2023-09-19T09:00:29;1.23;;;1.13;;
579;SDS011;276;48.392;9.950;2023-09-19T09:02:56;2.20;;;1.30;;
579;SDS011;276;48.392;9.950;2023-09-19T09:05:26;2.87;;;1.40;;
579;SDS011;276;48.392;9.950;2023-09-19T09:07:52;1.60;;;1.50;;
579;SDS011;276;48.392;9.950;2023-09-19T09:10:21;1.60;;;1.50;;
579;SDS011;276;48.392;9.950;2023-09-19T09:12:51;1.17;;;1.00;;
579;SDS011;276;48.392;9.950;2023-09-19T09:15:19;1.10;;;1.00;;
579;SDS011;276;48.392;9.950;2023-09-19T09:17:48;1.10;;;1.00;;
579;SDS011;276;48.392;9.950;2023-09-19T09:20:15;1.70;;;1.40;;
579;SDS011;276;48.392;9.950;2023-09-19T09:22:50;1.20;;;1.00;;
579;SDS011;276;48.392;9.950;2023-09-19T09:25:19;1.10;;;0.93;;
579;SDS011;276;48.392;9.950;2023-09-19T09:27:58;0.80;;;0.80;;
579;SDS011;276;48.392;9.950;2023-09-19T09:30:36;1.30;;;1.20;;
579;SDS011;276;48.392;9.950;2023-09-19T09:33:11;1.20;;;1.00;;
579;SDS011;276;48.392;9.950;2023-09-19T09:35:52;1.97;;;1.37;;
579;SDS011;276;48.392;9.950;2023-09-19T09:38:24;0.70;;;0.70;;
579;SDS011;276;48.392;9.950;2023-09-19T09:40:57;1.20;;;1.00;;
579;SDS011;276;48.392;9.950;2023-09-19T09:46:07;2.23;;;1.20;;
579;SDS011;276;48.392;9.950;2023-09-19T09:51:40;1.93;;;1.00;;
579;SDS011;276;48.392;9.950;2023-09-19T09:54:12;1.67;;;0.93;;
579;SDS011;276;48.392;9.950;2023-09-19T09:56:52;1.43;;;1.03;;
579;SDS011;276;48.392;9.950;2023-09-19T10:00:07;1.63;;;1.00;;
579;SDS011;276;48.392;9.950;2023-09-19T10:02:15;1.13;;;1.00;;
579;SDS011;276;48.392;9.950;2023-09-19T10:04:51;1.37;;;0.90;;
579;SDS011;276;48.392;9.950;2023-09-19T10:07:40;1.30;;;1.20;;
579;SDS011;276;48.392;9.950;2023-09-19T10:10:12;1.23;;;0.97;;
579;SDS011;276;48.392;9.950;2023-09-19T10:12:45;1.10;;;0.93;;
579;SDS011;276;48.392;9.950;2023-09-19T10:15:16;1.00;;;0.90;;
579;SDS011;276;48.392;9.950;2023-09-19T10:17:45;1.10;;;1.00;;
579;SDS011;276;48.392;9.950;2023-09-19T10:20:12;1.23;;;1.13;;
579;SDS011;276;48.392;9.950;2023-09-19T10:22:59;1.63;;;1.07;;
579;SDS011;276;48.392;9.950;2023-09-19T10:25:29;1.53;;;1.43;;
579;SDS011;276;48.392;9.950;2023-09-19T10:27:57;1.10;;;0.93;;
579;SDS011;276;48.392;9.950;2023-09-19T10:30:29;2.50;;;1.30;;
579;SDS011;276;48.392;9.950;2023-09-19T10:32:58;1.30;;;1.10;;
579;SDS011;276;48.392;9.950;2023-09-19T10:35:28;3.50;;;1.30;;
579;SDS011;276;48.392;9.950;2023-09-19T10:37:55;1.53;;;1.13;;
579;SDS011;276;48.392;9.950;2023-09-19T10:40:27;1.43;;;1.33;;
579;SDS011;276;48.392;9.950;2023-09-19T10:42:58;1.33;;;1.23;;
579;SDS011;276;48.392;9.950;2023-09-19T10:45:32;1.57;;;1.27;;
579;SDS011;276;48.392;9.950;2023-09-19T10:48:02;1.37;;;1.20;;
579;SDS011;276;48.392;9.950;2023-09-19T10:50:30;1.17;;;1.07;;
579;SDS011;276;48.392;9.950;2023-09-19T10:53:02;1.40;;;1.20;;
579;SDS011;276;48.392;9.950;2023-09-19T10:55:32;1.77;;;1.10;;
579;SDS011;276;48.392;9.950;2023-09-19T10:58:00;1.33;;;1.00;;
579;SDS011;276;48.392;9.950;2023-09-19T11:00:30;1.73;;;1.20;;
579;SDS011;276;48.392;9.950;2023-09-19T11:05:59;1.70;;;1.20;;
579;SDS011;276;48.392;9.950;2023-09-19T11:30:40;1.73;;;1.33;;
579;SDS011;276;48.392;9.950;2023-09-19T11:33:23;2.17;;;1.40;;
579;SDS011;276;48.392;9.950;2023-09-19T11:49:23;1.33;;;1.20;;
579;SDS011;276;48.392;9.950;2023-09-19T11:51:55;1.23;;;0.90;;
579;SDS011;276;48.392;9.950;2023-09-19T11:54:28;1.30;;;1.07;;
579;SDS011;276;48.392;9.950;2023-09-19T11:56:56;1.57;;;1.47;;
579;SDS011;276;48.392;9.950;2023-09-19T11:59:26;1.53;;;1.43;;
579;SDS011;276;48.392;9.950;2023-09-19T12:02:03;1.57;;;1.43;;
579;SDS011;276;48.392;9.950;2023-09-19T12:04:33;1.40;;;1.03;;
579;SDS011;276;48.392;9.950;2023-09-19T12:07:04;1.20;;;1.10;;
579;SDS011;276;48.392;9.950;2023-09-19T12:09:41;1.07;;;1.03;;
579;SDS011;276;48.392;9.950;2023-09-19T12:12:27;1.27;;;1.10;;
579;SDS011;276;48.392;9.950;2023-09-19T12:14:55;1.50;;;1.40;;
579;SDS011;276;48.392;9.950;2023-09-19T12:17:34;1.63;;;1.37;;
579;SDS011;276;48.392;9.950;2023-09-19T12:20:07;1.27;;;1.07;;
579;SDS011;276;48.392;9.950;2023-09-19T12:22:44;2.43;;;1.40;;
579;SDS011;276;48.392;9.950;2023-09-19T12:25:11;1.73;;;1.63;;
579;SDS011;276;48.392;9.950;2023-09-19T12:27:51;1.67;;;1.20;;
579;SDS011;276;48.392;9.950;2023-09-19T12:30:18;1.50;;;1.13;;
579;SDS011;276;48.392;9.950;2023-09-19T12:32:45;1.17;;;1.07;;
579;SDS011;276;48.392;9.950;2023-09-19T12:35:26;1.73;;;1.30;;
579;SDS011;276;48.392;9.950;2023-09-19T12:37:59;1.47;;;1.37;;
579;SDS011;276;48.392;9.950;2023-09-19T12:40:26;1.57;;;1.30;;
579;SDS011;276;48.392;9.950;2023-09-19T12:42:58;1.50;;;1.40;;
579;SDS011;276;48.392;9.950;2023-09-19T12:45:25;1.33;;;0.90;;
579;SDS011;276;48.392;9.950;2023-09-19T12:51:34;2.20;;;1.40;;
579;SDS011;276;48.392;9.950;2023-09-19T12:53:37;1.33;;;1.13;;
579;SDS011;276;48.392;9.950;2023-09-19T12:56:12;1.60;;;1.23;;
579;SDS011;276;48.392;9.950;2023-09-19T13:01:30;1.30;;;1.20;;
579;SDS011;276;48.392;9.950;2023-09-19T13:04:14;2.50;;;1.93;;
579;SDS011;276;48.392;9.950;2023-09-19T13:06:48;1.60;;;1.40;;
579;SDS011;276;48.392;9.950;2023-09-19T13:09:15;2.03;;;1.83;;
579;SDS011;276;48.392;9.950;2023-09-19T13:11:48;1.50;;;1.40;;
579;SDS011;276;48.392;9.950;2023-09-19T13:14:21;1.80;;;1.27;;
579;SDS011;276;48.392;9.950;2023-09-19T13:17:07;1.33;;;1.23;;
579;SDS011;276;48.392;9.950;2023-09-19T13:19:48;1.73;;;1.63;;
579;SDS011;276;48.392;9.950;2023-09-19T13:25:12;2.00;;;1.30;;
579;SDS011;276;48.392;9.950;2023-09-19T13:27:50;1.90;;;1.63;;
579;SDS011;276;48.392;9.950;2023-09-19T13:30:21;1.93;;;1.33;;
579;SDS011;276;48.392;9.950;2023-09-19T13:32:52;1.83;;;1.50;;
579;SDS011;276;48.392;9.950;2023-09-19T13:35:32;2.07;;;1.97;;
579;SDS011;276;48.392;9.950;2023-09-19T13:37:57;1.53;;;1.40;;
579;SDS011;276;48.392;9.950;2023-09-19T13:40:24;2.03;;;1.30;;
579;SDS011;276;48.392;9.950;2023-09-19T13:42:59;1.37;;;1.27;;
579;SDS011;276;48.392;9.950;2023-09-19T13:45:26;1.97;;;1.87;;
579;SDS011;276;48.392;9.950;2023-09-19T13:47:54;2.50;;;1.70;;
579;SDS011;276;48.392;9.950;2023-09-19T13:50:20;2.80;;;1.80;;
579;SDS011;276;48.392;9.950;2023-09-19T13:52:49;2.50;;;1.80;;
579;SDS011;276;48.392;9.950;2023-09-19T13:55:18;1.47;;;1.30;;
579;SDS011;276;48.392;9.950;2023-09-19T13:57:48;2.00;;;1.77;;
579;SDS011;276;48.392;9.950;2023-09-19T14:00:21;2.17;;;1.70;;
579;SDS011;276;48.392;9.950;2023-09-19T14:02:49;1.53;;;1.43;;
579;SDS011;276;48.392;9.950;2023-09-19T14:05:15;1.50;;;1.23;;
579;SDS011;276;48.392;9.950;2023-09-19T14:07:42;2.13;;;1.13;;
579;SDS011;276;48.392;9.950;2023-09-19T14:10:09;1.80;;;1.47;;
579;SDS011;276;48.392;9.950;2023-09-19T14:12:39;1.57;;;1.47;;
579;SDS011;276;48.392;9.950;2023-09-19T14:15:08;3.60;;;1.60;;
579;SDS011;276;48.392;9.950;2023-09-19T14:17:35;1.90;;;1.80;;
579;SDS011;276;48.392;9.950;2023-09-19T14:20:01;2.03;;;1.83;;
579;SDS011;276;48.392;9.950;2023-09-19T14:22:30;1.40;;;1.30;;
579;SDS011;276;48.392;9.950;2023-09-19T14:24:59;2.30;;;2.10;;
579;SDS011;276;48.392;9.950;2023-09-19T14:27:24;2.30;;;1.93;;
579;SDS011;276;48.392;9.950;2023-09-19T14:29:50;2.20;;;2.00;;
579;SDS011;276;48.392;9.950;2023-09-19T14:32:19;3.37;;;2.30;;
579;SDS011;276;48.392;9.950;2023-09-19T14:34:46;1.83;;;1.70;;
579;SDS011;276;48.392;9.950;2023-09-19T14:37:12;1.67;;;1.33;;
579;SDS011;276;48.392;9.950;2023-09-19T14:39:38;1.47;;;1.37;;
579;SDS011;276;48.392;9.950;2023-09-19T14:42:04;1.53;;;1.40;;
579;SDS011;276;48.392;9.950;2023-09-19T14:44:30;1.50;;;1.33;;
579;SDS011;276;48.392;9.950;2023-09-19T14:46:56;2.30;;;1.50;;
579;SDS011;276;48.392;9.950;2023-09-19T14:49:24;1.33;;;1.23;;
579;SDS011;276;48.392;9.950;2023-09-19T14:51:52;1.70;;;1.60;;
579;SDS011;276;48.392;9.950;2023-09-19T14:54:17;1.70;;;1.47;;
579;SDS011;276;48.392;9.950;2023-09-19T14:56:43;1.80;;;1.70;;
579;SDS011;276;48.392;9.950;2023-09-19T14:59:10;1.93;;;1.83;;
579;SDS011;276;48.392;9.950;2023-09-19T15:01:40;2.07;;;1.20;;
579;SDS011;276;48.392;9.950;2023-09-19T15:04:09;2.13;;;1.30;;
579;SDS011;276;48.392;9.950;2023-09-19T15:06:34;1.50;;;1.37;;
579;SDS011;276;48.392;9.950;2023-09-19T15:09:03;2.13;;;1.93;;
579;SDS011;276;48.392;9.950;2023-09-19T15:11:30;2.13;;;1.77;;
579;SDS011;276;48.392;9.950;2023-09-19T15:13:55;2.03;;;1.77;;
579;SDS011;276;48.392;9.950;2023-09-19T15:16:26;2.97;;;1.80;;
579;SDS011;276;48.392;9.950;2023-09-19T15:18:52;1.83;;;1.40;;
579;SDS011;276;48.392;9.950;2023-09-19T15:21:17;1.83;;;1.53;;
579;SDS011;276;48.392;9.950;2023-09-19T15:23:48;2.10;;;1.90;;
579;SDS011;276;48.392;9.950;2023-09-19T15:26:16;1.40;;;1.30;;
579;SDS011;276;48.392;9.950;2023-09-19T15:28:45;1.70;;;1.40;;
579;SDS011;276;48.392;9.950;2023-09-19T15:31:11;2.17;;;1.13;;
579;SDS011;276;48.392;9.950;2023-09-19T15:33:40;1.50;;;1.27;;
579;SDS011;276;48.392;9.950;2023-09-19T15:36:06;1.50;;;1.30;;
579;SDS011;276;48.392;9.950;2023-09-19T15:41:36;1.93;;;1.80;;
579;SDS011;276;48.392;9.950;2023-09-19T15:44:03;1.63;;;1.53;;
579;SDS011;276;48.392;9.950;2023-09-19T15:46:35;2.10;;;1.43;;
579;SDS011;276;48.392;9.950;2023-09-19T15:49:01;2.53;;;2.00;;
579;SDS011;276;48.392;9.950;2023-09-19T15:51:28;3.10;;;1.90;;
579;SDS011;276;48.392;9.950;2023-09-19T15:53:54;1.70;;;1.60;;
579;SDS011;276;48.392;9.950;2023-09-19T15:56:25;1.47;;;1.37;;
579;SDS011;276;48.392;9.950;2023-09-19T15:58:52;1.37;;;1.27;;
579;SDS011;276;48.392;9.950;2023-09-19T16:01:19;3.10;;;2.53;;
579;SDS011;276;48.392;9.950;2023-09-19T16:03:49;1.83;;;1.73;;
579;SDS011;276;48.392;9.950;2023-09-19T16:06:23;2.27;;;1.50;;
579;SDS011;276;48.392;9.950;2023-09-19T16:08:56;1.60;;;1.50;;
579;SDS011;276;48.392;9.950;2023-09-19T16:11:23;2.20;;;2.00;;
579;SDS011;276;48.392;9.950;2023-09-19T16:13:55;1.70;;;1.60;;
579;SDS011;276;48.392;9.950;2023-09-19T16:16:23;2.23;;;2.00;;
579;SDS011;276;48.392;9.950;2023-09-19T16:18:52;3.80;;;2.30;;
579;SDS011;276;48.392;9.950;2023-09-19T16:21:25;3.00;;;2.50;;
579;SDS011;276;48.392;9.950;2023-09-19T16:23:53;3.03;;;2.57;;
579;SDS011;276;48.392;9.950;2023-09-19T16:26:19;3.00;;;2.10;;
579;SDS011;276;48.392;9.950;2023-09-19T16:28:46;2.83;;;1.70;;
579;SDS011;276;48.392;9.950;2023-09-19T16:31:14;1.73;;;1.50;;
579;SDS011;276;48.392;9.950;2023-09-19T16:33:43;2.83;;;2.17;;
579;SDS011;276;48.392;9.950;2023-09-19T16:36:18;2.57;;;1.83;;
579;SDS011;276;48.392;9.950;2023-09-19T16:38:46;1.63;;;1.37;;
579;SDS011;276;48.392;9.950;2023-09-19T16:41:13;1.30;;;1.20;;
579;SDS011;276;48.392;9.950;2023-09-19T16:43:39;2.03;;;1.30;;
579;SDS011;276;48.392;9.950;2023-09-19T16:46:06;1.93;;;1.30;;
579;SDS011;276;48.392;9.950;2023-09-19T16:48:37;1.60;;;1.20;;
579;SDS011;276;48.392;9.950;2023-09-19T16:51:06;1.37;;;1.27;;
579;SDS011;276;48.392;9.950;2023-09-19T16:53:34;2.27;;;1.40;;
579;SDS011;276;48.392;9.950;2023-09-19T16:56:08;1.93;;;1.63;;
579;SDS011;276;48.392;9.950;2023-09-19T16:58:40;1.33;;;1.23;;
579;SDS011;276;48.392;9.950;2023-09-19T17:01:08;1.53;;;1.40;;
579;SDS011;276;48.392;9.950;2023-09-19T17:03:40;1.60;;;1.50;;
579;SDS011;276;48.392;9.950;2023-09-19T17:06:09;2.17;;;1.40;;
579;SDS011;276;48.392;9.950;2023-09-19T17:08:39;1.90;;;1.70;;
579;SDS011;276;48.392;9.950;2023-09-19T17:11:07;1.30;;;1.20;;
579;SDS011;276;48.392;9.950;2023-09-19T17:13:34;1.80;;;1.70;;
579;SDS011;276;48.392;9.950;2023-09-19T17:16:06;1.70;;;1.60;;
579;SDS011;276;48.392;9.950;2023-09-19T17:18:43;2.50;;;1.57;;